RAM937R LSZH-GMMN
Flight info
| Callsign | RAM937R |
|---|---|
| Flight time | 2h 51m |
| Altitude | 37000 |
| Route | VEBIT T50 ROTOS Z669 ULMES DCT VADAR DCT NINTU DCT MEBAK DCT REPSI DCT LERGA DCT MINSO DCT NARAK DCT AGN DCT MAQAB DCT TIVLI DCT ELSAP DCT ZAR DCT EXEMU DCT PISUS DCT EDIMU DCT ADUXO DCT NUSGO DCT OBIBO DCT NASOS L27 BLN DCT MGA DCT PIMOS DCT GALTO UB11 TUSOR |
| Aircraft | B738/M-SDE2E3FGHIRWXY/LB1 |
Departure
| Time | 2026-04-26 12:31 |
|---|---|
| Airport | Zürich Airport (LSZH) |
Arrival
| Time | 2026-04-26 15:22 |
|---|---|
| Airport | Mohammed V International Airport (GMMN) |
| Time | Latitude | Longitude | Altitude | Speed | Heading |
|---|---|---|---|---|---|
| 2026-04-26 11:48 | 47.45161 | 8.55897 | 1403 ft | 0 kts | 185° |
| 2026-04-26 12:10 | 47.45164 | 8.55897 | 1403 ft | 2 kts | 185° |
| 2026-04-26 12:11 | 47.45179 | 8.55899 | 1403 ft | 2 kts | 186° |
| 2026-04-26 12:11 | 47.45194 | 8.55902 | 1403 ft | 2 kts | 185° |
| 2026-04-26 12:11 | 47.45209 | 8.55904 | 1403 ft | 2 kts | 189° |
| 2026-04-26 12:11 | 47.45223 | 8.55911 | 1403 ft | 2 kts | 211° |
| 2026-04-26 12:12 | 47.45235 | 8.55925 | 1404 ft | 2 kts | 229° |
| 2026-04-26 12:12 | 47.45243 | 8.55943 | 1404 ft | 2 kts | 246° |
| 2026-04-26 12:12 | 47.45247 | 8.55964 | 1405 ft | 2 kts | 263° |
| 2026-04-26 12:12 | 47.45248 | 8.55977 | 1406 ft | 0 kts | 273° |
| 2026-04-26 12:13 | 47.45246 | 8.55987 | 1406 ft | 0 kts | 276° |
| 2026-04-26 12:17 | 47.45247 | 8.55984 | 1406 ft | 2 kts | 276° |
| 2026-04-26 12:17 | 47.45253 | 8.55909 | 1403 ft | 11 kts | 275° |
| 2026-04-26 12:18 | 47.45262 | 8.55755 | 1399 ft | 17 kts | 275° |
| 2026-04-26 12:18 | 47.45280 | 8.55583 | 1394 ft | 16 kts | 299° |
| 2026-04-26 12:18 | 47.45378 | 8.55505 | 1394 ft | 15 kts | 336° |
| 2026-04-26 12:18 | 47.45478 | 8.55439 | 1392 ft | 15 kts | 334° |
| 2026-04-26 12:19 | 47.45584 | 8.55365 | 1389 ft | 18 kts | 334° |
| 2026-04-26 12:19 | 47.45668 | 8.55360 | 1388 ft | 11 kts | 71° |
| 2026-04-26 12:19 | 47.45665 | 8.55488 | 1390 ft | 14 kts | 95° |
| 2026-04-26 12:19 | 47.45655 | 8.55640 | 1393 ft | 15 kts | 95° |
| 2026-04-26 12:20 | 47.45642 | 8.55806 | 1397 ft | 17 kts | 96° |
| 2026-04-26 12:20 | 47.45630 | 8.55984 | 1401 ft | 16 kts | 95° |
| 2026-04-26 12:20 | 47.45618 | 8.56156 | 1405 ft | 17 kts | 96° |
| 2026-04-26 12:20 | 47.45604 | 8.56338 | 1409 ft | 16 kts | 95° |
| 2026-04-26 12:21 | 47.45594 | 8.56486 | 1412 ft | 12 kts | 95° |
| 2026-04-26 12:21 | 47.45586 | 8.56599 | 1414 ft | 9 kts | 95° |
| 2026-04-26 12:21 | 47.45581 | 8.56670 | 1415 ft | 0 kts | 96° |
| 2026-04-26 12:24 | 47.45581 | 8.56676 | 1415 ft | 2 kts | 96° |
| 2026-04-26 12:24 | 47.45576 | 8.56729 | 1415 ft | 7 kts | 96° |
| 2026-04-26 12:25 | 47.45569 | 8.56835 | 1417 ft | 1 kts | 95° |
| 2026-04-26 12:25 | 47.45569 | 8.56836 | 1417 ft | 0 kts | 95° |
| 2026-04-26 12:25 | 47.45569 | 8.56837 | 1417 ft | 0 kts | 95° |
| 2026-04-26 12:26 | 47.45567 | 8.56864 | 1417 ft | 5 kts | 95° |
| 2026-04-26 12:26 | 47.45564 | 8.56922 | 1419 ft | 0 kts | 95° |
| 2026-04-26 12:28 | 47.45564 | 8.56921 | 1418 ft | 0 kts | 95° |
| 2026-04-26 12:28 | 47.45563 | 8.56937 | 1419 ft | 4 kts | 95° |
| 2026-04-26 12:29 | 47.45588 | 8.57009 | 1419 ft | 13 kts | 27° |
| 2026-04-26 12:29 | 47.45661 | 8.57016 | 1416 ft | 6 kts | 310° |
| 2026-04-26 12:29 | 47.45666 | 8.56995 | 1416 ft | 0 kts | 275° |
| 2026-04-26 12:30 | 47.45670 | 8.56936 | 1415 ft | 16 kts | 274° |
| 2026-04-26 12:31 | 47.45802 | 8.55074 | 1384 ft | 158 kts | 276° |
| 2026-04-26 12:31 | 47.45923 | 8.53245 | 1610 ft | 189 kts | 277° |
| 2026-04-26 12:31 | 47.46076 | 8.51393 | 2350 ft | 188 kts | 279° |
| 2026-04-26 12:31 | 47.46258 | 8.49451 | 2963 ft | 199 kts | 279° |
| 2026-04-26 12:32 | 47.46341 | 8.47373 | 3484 ft | 212 kts | 263° |
| 2026-04-26 12:32 | 47.45686 | 8.45338 | 3850 ft | 234 kts | 225° |
| 2026-04-26 12:32 | 47.42739 | 8.42839 | 4969 ft | 257 kts | 216° |
| 2026-04-26 12:33 | 47.41528 | 8.40912 | 5655 ft | 263 kts | 236° |
| 2026-04-26 12:33 | 47.40551 | 8.38543 | 6194 ft | 278 kts | 239° |
| 2026-04-26 12:33 | 47.39561 | 8.36105 | 6942 ft | 282 kts | 238° |
| 2026-04-26 12:33 | 47.38502 | 8.33643 | 7740 ft | 285 kts | 238° |
| 2026-04-26 12:34 | 47.37534 | 8.31110 | 8526 ft | 288 kts | 243° |
| 2026-04-26 12:34 | 47.36651 | 8.28461 | 9292 ft | 291 kts | 244° |
| 2026-04-26 12:34 | 47.35762 | 8.25763 | 10074 ft | 293 kts | 244° |
| 2026-04-26 12:34 | 47.34852 | 8.23084 | 10730 ft | 300 kts | 243° |
| 2026-04-26 12:35 | 47.33878 | 8.20289 | 11146 ft | 314 kts | 243° |
| 2026-04-26 12:35 | 47.32851 | 8.17389 | 11582 ft | 328 kts | 243° |
| 2026-04-26 12:35 | 47.31762 | 8.14335 | 12059 ft | 342 kts | 243° |
| 2026-04-26 12:35 | 47.30655 | 8.11236 | 12709 ft | 348 kts | 243° |
| 2026-04-26 12:36 | 47.29532 | 8.08088 | 13433 ft | 352 kts | 243° |
| 2026-04-26 12:36 | 47.28388 | 8.04876 | 14172 ft | 355 kts | 243° |
| 2026-04-26 12:36 | 47.27248 | 8.01680 | 14886 ft | 358 kts | 243° |
| 2026-04-26 12:36 | 47.26093 | 7.98439 | 15605 ft | 361 kts | 243° |
| 2026-04-26 12:37 | 47.24947 | 7.95175 | 16366 ft | 361 kts | 244° |
| 2026-04-26 12:37 | 47.23780 | 7.91928 | 17054 ft | 364 kts | 242° |
| 2026-04-26 12:37 | 47.22553 | 7.88656 | 17606 ft | 369 kts | 245° |
| 2026-04-26 12:37 | 47.21576 | 7.85182 | 18214 ft | 371 kts | 253° |
| 2026-04-26 12:38 | 47.20909 | 7.81477 | 18881 ft | 373 kts | 258° |
| 2026-04-26 12:38 | 47.20285 | 7.77784 | 19495 ft | 376 kts | 255° |
| 2026-04-26 12:38 | 47.19430 | 7.74163 | 20129 ft | 379 kts | 247° |
| 2026-04-26 12:38 | 47.18179 | 7.70788 | 20666 ft | 384 kts | 238° |
| 2026-04-26 12:39 | 47.16621 | 7.67574 | 21274 ft | 387 kts | 234° |
| 2026-04-26 12:39 | 47.14953 | 7.64488 | 21823 ft | 390 kts | 232° |
| 2026-04-26 12:39 | 47.13219 | 7.61397 | 22372 ft | 393 kts | 232° |
| 2026-04-26 12:39 | 47.11477 | 7.58311 | 22901 ft | 396 kts | 232° |
| 2026-04-26 12:40 | 47.09719 | 7.55174 | 23392 ft | 399 kts | 232° |
| 2026-04-26 12:40 | 47.07984 | 7.52048 | 23952 ft | 401 kts | 233° |
| 2026-04-26 12:40 | 47.06216 | 7.48839 | 24454 ft | 404 kts | 233° |
| 2026-04-26 12:40 | 47.04480 | 7.45672 | 24941 ft | 406 kts | 233° |
| 2026-04-26 12:41 | 47.02689 | 7.42391 | 25382 ft | 410 kts | 233° |
| 2026-04-26 12:41 | 47.00905 | 7.39125 | 25817 ft | 413 kts | 233° |
| 2026-04-26 12:41 | 46.99131 | 7.35885 | 26260 ft | 416 kts | 233° |
| 2026-04-26 12:41 | 46.97319 | 7.32582 | 26676 ft | 419 kts | 232° |
| 2026-04-26 12:42 | 46.95495 | 7.29262 | 27134 ft | 421 kts | 232° |
| 2026-04-26 12:42 | 46.93663 | 7.25928 | 27619 ft | 422 kts | 232° |
| 2026-04-26 12:42 | 46.91824 | 7.22577 | 28073 ft | 424 kts | 232° |
| 2026-04-26 12:42 | 46.89972 | 7.19201 | 28451 ft | 427 kts | 232° |
| 2026-04-26 12:43 | 46.88089 | 7.15773 | 28765 ft | 431 kts | 232° |
| 2026-04-26 12:43 | 46.86225 | 7.12382 | 29315 ft | 430 kts | 232° |
| 2026-04-26 12:43 | 46.84370 | 7.09011 | 29684 ft | 432 kts | 232° |
| 2026-04-26 12:43 | 46.82467 | 7.05561 | 30004 ft | 436 kts | 232° |
| 2026-04-26 12:44 | 46.80570 | 7.02125 | 30343 ft | 439 kts | 233° |
| 2026-04-26 12:44 | 46.78654 | 6.98663 | 30652 ft | 442 kts | 232° |
| 2026-04-26 12:44 | 46.76729 | 6.95189 | 31203 ft | 439 kts | 232° |
| 2026-04-26 12:44 | 46.74837 | 6.91778 | 31748 ft | 436 kts | 232° |
| 2026-04-26 12:45 | 46.72929 | 6.88341 | 32283 ft | 433 kts | 232° |
| 2026-04-26 12:45 | 46.71059 | 6.84975 | 32820 ft | 430 kts | 232° |
| 2026-04-26 12:45 | 46.69186 | 6.81610 | 33313 ft | 427 kts | 233° |
| 2026-04-26 12:45 | 46.67318 | 6.78259 | 33731 ft | 426 kts | 233° |
| 2026-04-26 12:46 | 46.65513 | 6.74896 | 34173 ft | 423 kts | 236° |
| 2026-04-26 12:46 | 46.63879 | 6.71415 | 34549 ft | 422 kts | 239° |
| 2026-04-26 12:46 | 46.62308 | 6.67748 | 34781 ft | 424 kts | 240° |
| 2026-04-26 12:46 | 46.60808 | 6.64091 | 35024 ft | 425 kts | 241° |
| 2026-04-26 12:47 | 46.59323 | 6.60426 | 35348 ft | 423 kts | 241° |
| 2026-04-26 12:47 | 46.57826 | 6.56739 | 35640 ft | 422 kts | 241° |
| 2026-04-26 12:47 | 46.56347 | 6.53118 | 35858 ft | 423 kts | 241° |
| 2026-04-26 12:47 | 46.54839 | 6.49457 | 36084 ft | 423 kts | 241° |
| 2026-04-26 12:48 | 46.53328 | 6.45811 | 36308 ft | 423 kts | 241° |
| 2026-04-26 12:48 | 46.51799 | 6.42144 | 36534 ft | 423 kts | 240° |
| 2026-04-26 12:48 | 46.50286 | 6.38531 | 36760 ft | 424 kts | 240° |
| 2026-04-26 12:48 | 46.48748 | 6.34870 | 36925 ft | 425 kts | 240° |
| 2026-04-26 12:49 | 46.47224 | 6.31252 | 37195 ft | 425 kts | 240° |
| 2026-04-26 12:49 | 46.44138 | 6.23950 | 37170 ft | 424 kts | 240° |
| 2026-04-26 12:50 | 46.41065 | 6.16707 | 37180 ft | 422 kts | 240° |
| 2026-04-26 12:50 | 46.37982 | 6.09452 | 37174 ft | 425 kts | 240° |
| 2026-04-26 12:51 | 46.34904 | 6.02227 | 37164 ft | 426 kts | 240° |
| 2026-04-26 12:51 | 46.31787 | 5.94928 | 37170 ft | 424 kts | 240° |
| 2026-04-26 12:52 | 46.28698 | 5.87712 | 37158 ft | 426 kts | 240° |
| 2026-04-26 12:52 | 46.25585 | 5.80466 | 37163 ft | 425 kts | 239° |
| 2026-04-26 12:53 | 46.22478 | 5.73257 | 37171 ft | 427 kts | 240° |
| 2026-04-26 12:53 | 46.19334 | 5.65982 | 37162 ft | 426 kts | 240° |
| 2026-04-26 12:54 | 46.16209 | 5.58765 | 37166 ft | 427 kts | 240° |
| 2026-04-26 12:54 | 46.13042 | 5.51602 | 37153 ft | 425 kts | 238° |
| 2026-04-26 12:55 | 46.09670 | 5.44544 | 37168 ft | 430 kts | 237° |
| 2026-04-26 12:55 | 46.06247 | 5.37531 | 37155 ft | 427 kts | 237° |
| 2026-04-26 12:56 | 46.02859 | 5.30573 | 37151 ft | 429 kts | 236° |
| 2026-04-26 12:56 | 45.99436 | 5.23518 | 37153 ft | 430 kts | 237° |
| 2026-04-26 12:57 | 45.96035 | 5.16506 | 37155 ft | 431 kts | 237° |
| 2026-04-26 12:57 | 45.93235 | 5.10738 | 37150 ft | 430 kts | 237° |
| 2026-04-26 12:58 | 45.88134 | 5.00257 | 37141 ft | 432 kts | 237° |
| 2026-04-26 12:58 | 45.84701 | 4.93224 | 37153 ft | 430 kts | 237° |
| 2026-04-26 12:59 | 45.81267 | 4.86207 | 37159 ft | 430 kts | 237° |
| 2026-04-26 12:59 | 45.77847 | 4.79235 | 37152 ft | 429 kts | 237° |
| 2026-04-26 13:00 | 45.74395 | 4.72211 | 37153 ft | 432 kts | 237° |
| 2026-04-26 13:00 | 45.70947 | 4.65215 | 37157 ft | 434 kts | 237° |
| 2026-04-26 13:01 | 45.67481 | 4.58204 | 37162 ft | 433 kts | 237° |
| 2026-04-26 13:01 | 45.64015 | 4.51202 | 37169 ft | 432 kts | 237° |
| 2026-04-26 13:02 | 45.60539 | 4.44198 | 37182 ft | 435 kts | 237° |
| 2026-04-26 13:02 | 45.57053 | 4.37193 | 37184 ft | 434 kts | 237° |
| 2026-04-26 13:03 | 45.53553 | 4.30175 | 37180 ft | 432 kts | 236° |
| 2026-04-26 13:03 | 45.50083 | 4.23239 | 37180 ft | 436 kts | 236° |
| 2026-04-26 13:04 | 45.46571 | 4.16244 | 37188 ft | 436 kts | 236° |
| 2026-04-26 13:04 | 45.43019 | 4.09180 | 37178 ft | 436 kts | 237° |
| 2026-04-26 13:05 | 45.39502 | 4.02204 | 37192 ft | 438 kts | 237° |
| 2026-04-26 13:05 | 45.35941 | 3.95161 | 37169 ft | 439 kts | 236° |
| 2026-04-26 13:06 | 45.32385 | 3.88147 | 37188 ft | 438 kts | 237° |
| 2026-04-26 13:06 | 45.28863 | 3.81213 | 37187 ft | 435 kts | 236° |
| 2026-04-26 13:07 | 45.25324 | 3.74265 | 37197 ft | 438 kts | 237° |
| 2026-04-26 13:07 | 45.21810 | 3.67207 | 37190 ft | 439 kts | 238° |
| 2026-04-26 13:08 | 45.18343 | 3.60137 | 37204 ft | 438 kts | 238° |
| 2026-04-26 13:08 | 45.14870 | 3.53073 | 37192 ft | 438 kts | 238° |
| 2026-04-26 13:09 | 45.11394 | 3.46035 | 37187 ft | 439 kts | 238° |
| 2026-04-26 13:09 | 45.07883 | 3.38953 | 37207 ft | 438 kts | 238° |
| 2026-04-26 13:10 | 45.04404 | 3.31958 | 37187 ft | 436 kts | 237° |
| 2026-04-26 13:10 | 45.00913 | 3.24959 | 37186 ft | 441 kts | 237° |
| 2026-04-26 13:11 | 44.97381 | 3.17901 | 37198 ft | 439 kts | 237° |
| 2026-04-26 13:11 | 44.93865 | 3.10889 | 37186 ft | 441 kts | 237° |
| 2026-04-26 13:12 | 44.90328 | 3.03859 | 37188 ft | 438 kts | 237° |
| 2026-04-26 13:12 | 44.86801 | 2.96854 | 37184 ft | 441 kts | 237° |
| 2026-04-26 13:13 | 44.83305 | 2.89850 | 37196 ft | 440 kts | 239° |
| 2026-04-26 13:13 | 44.79963 | 2.82649 | 37192 ft | 439 kts | 240° |
| 2026-04-26 13:14 | 44.76704 | 2.75471 | 37177 ft | 437 kts | 240° |
| 2026-04-26 13:14 | 44.73417 | 2.68270 | 37182 ft | 439 kts | 240° |
| 2026-04-26 13:15 | 44.70105 | 2.61074 | 37175 ft | 439 kts | 240° |
| 2026-04-26 13:15 | 44.67348 | 2.55123 | 37173 ft | 438 kts | 240° |
| 2026-04-26 13:16 | 44.63469 | 2.46793 | 37166 ft | 439 kts | 240° |
| 2026-04-26 13:16 | 44.60141 | 2.39665 | 37154 ft | 438 kts | 240° |
| 2026-04-26 13:17 | 44.55117 | 2.28939 | 37171 ft | 439 kts | 239° |
| 2026-04-26 13:18 | 44.50085 | 2.18236 | 37148 ft | 439 kts | 239° |
| 2026-04-26 13:19 | 44.45063 | 2.07598 | 37142 ft | 439 kts | 239° |
| 2026-04-26 13:19 | 44.41708 | 2.00514 | 37140 ft | 437 kts | 239° |
| 2026-04-26 13:20 | 44.38348 | 1.93435 | 37142 ft | 438 kts | 239° |
| 2026-04-26 13:20 | 44.34999 | 1.86394 | 37142 ft | 439 kts | 239° |
| 2026-04-26 13:21 | 44.31623 | 1.79316 | 37143 ft | 439 kts | 239° |
| 2026-04-26 13:21 | 44.28237 | 1.72203 | 37144 ft | 439 kts | 239° |
| 2026-04-26 13:22 | 44.24946 | 1.65075 | 37141 ft | 439 kts | 240° |
| 2026-04-26 13:22 | 44.21686 | 1.57941 | 37145 ft | 438 kts | 240° |
| 2026-04-26 13:23 | 44.18409 | 1.50792 | 37140 ft | 439 kts | 240° |
| 2026-04-26 13:23 | 44.15121 | 1.43657 | 37144 ft | 439 kts | 240° |
| 2026-04-26 13:24 | 44.11842 | 1.36571 | 37140 ft | 439 kts | 240° |
| 2026-04-26 13:24 | 44.08517 | 1.29411 | 37139 ft | 439 kts | 239° |
| 2026-04-26 13:25 | 44.05217 | 1.22322 | 37131 ft | 439 kts | 239° |
| 2026-04-26 13:25 | 44.01922 | 1.15263 | 37127 ft | 439 kts | 239° |
| 2026-04-26 13:25 | 44.00259 | 1.11708 | 37461 ft | 440 kts | 239° |
| 2026-04-26 13:26 | 43.98584 | 1.08131 | 37196 ft | 442 kts | 239° |
| 2026-04-26 13:26 | 43.95275 | 1.01082 | 37124 ft | 435 kts | 239° |
| 2026-04-26 13:27 | 43.91960 | 0.94033 | 37127 ft | 439 kts | 239° |
| 2026-04-26 13:27 | 43.88430 | 0.87165 | 36836 ft | 437 kts | 231° |
| 2026-04-26 13:27 | 43.86385 | 0.84104 | 37122 ft | 436 kts | 227° |
| 2026-04-26 13:28 | 43.84195 | 0.81213 | 37140 ft | 441 kts | 224° |
| 2026-04-26 13:28 | 43.81907 | 0.78381 | 37411 ft | 446 kts | 223° |
| 2026-04-26 13:28 | 43.79566 | 0.75555 | 37150 ft | 446 kts | 223° |
| 2026-04-26 13:29 | 43.74935 | 0.70009 | 36776 ft | 439 kts | 223° |
| 2026-04-26 13:29 | 43.73414 | 0.68178 | 36962 ft | 437 kts | 223° |
| 2026-04-26 13:29 | 43.70382 | 0.64509 | 37336 ft | 442 kts | 223° |
| 2026-04-26 13:29 | 43.68061 | 0.61685 | 37141 ft | 442 kts | 223° |
| 2026-04-26 13:30 | 43.65776 | 0.58901 | 37141 ft | 439 kts | 223° |
| 2026-04-26 13:30 | 43.61203 | 0.53313 | 37140 ft | 442 kts | 223° |
| 2026-04-26 13:31 | 43.56615 | 0.47708 | 36891 ft | 439 kts | 223° |
| 2026-04-26 13:31 | 43.54350 | 0.44945 | 37144 ft | 439 kts | 223° |
| 2026-04-26 13:31 | 43.52053 | 0.42144 | 37149 ft | 443 kts | 223° |
| 2026-04-26 13:32 | 43.47435 | 0.36520 | 37149 ft | 444 kts | 223° |
| 2026-04-26 13:32 | 43.42849 | 0.30950 | 37150 ft | 442 kts | 223° |
| 2026-04-26 13:33 | 43.38222 | 0.25340 | 37155 ft | 443 kts | 222° |
| 2026-04-26 13:33 | 43.33609 | 0.19761 | 37163 ft | 442 kts | 222° |
| 2026-04-26 13:34 | 43.29002 | 0.14202 | 37178 ft | 443 kts | 222° |
| 2026-04-26 13:34 | 43.24400 | 0.08661 | 37172 ft | 442 kts | 222° |
| 2026-04-26 13:35 | 43.19767 | 0.03094 | 37182 ft | 443 kts | 222° |
| 2026-04-26 13:35 | 43.15171 | -0.02419 | 37186 ft | 443 kts | 222° |
| 2026-04-26 13:36 | 43.10540 | -0.07959 | 37185 ft | 443 kts | 222° |
| 2026-04-26 13:36 | 43.05897 | -0.13504 | 37195 ft | 442 kts | 222° |
| 2026-04-26 13:37 | 43.01268 | -0.19021 | 37197 ft | 443 kts | 222° |
| 2026-04-26 13:37 | 42.96652 | -0.24510 | 37210 ft | 443 kts | 222° |
| 2026-04-26 13:38 | 42.92042 | -0.29980 | 37214 ft | 442 kts | 222° |
| 2026-04-26 13:38 | 42.87407 | -0.35470 | 37217 ft | 442 kts | 222° |
| 2026-04-26 13:39 | 42.82705 | -0.40933 | 37213 ft | 442 kts | 220° |
| 2026-04-26 13:39 | 42.77551 | -0.45358 | 37224 ft | 443 kts | 206° |
| 2026-04-26 13:40 | 42.71862 | -0.48577 | 37212 ft | 443 kts | 201° |
| 2026-04-26 13:40 | 42.66110 | -0.51467 | 37205 ft | 443 kts | 201° |
| 2026-04-26 13:41 | 42.60296 | -0.54390 | 37196 ft | 443 kts | 201° |
| 2026-04-26 13:41 | 42.54566 | -0.57325 | 37184 ft | 443 kts | 202° |
| 2026-04-26 13:42 | 42.48820 | -0.60302 | 37166 ft | 442 kts | 202° |
| 2026-04-26 13:42 | 42.43119 | -0.63268 | 37160 ft | 441 kts | 202° |
| 2026-04-26 13:43 | 42.37358 | -0.66268 | 37168 ft | 443 kts | 201° |
| 2026-04-26 13:43 | 42.31638 | -0.69242 | 37135 ft | 440 kts | 201° |
| 2026-04-26 13:44 | 42.25926 | -0.72206 | 37138 ft | 441 kts | 201° |
| 2026-04-26 13:44 | 42.20211 | -0.75166 | 37126 ft | 441 kts | 201° |
| 2026-04-26 13:45 | 42.14493 | -0.78121 | 37125 ft | 441 kts | 201° |
| 2026-04-26 13:45 | 42.08798 | -0.81060 | 37133 ft | 442 kts | 201° |
| 2026-04-26 13:46 | 42.03075 | -0.84006 | 37127 ft | 442 kts | 201° |
| 2026-04-26 13:46 | 41.97325 | -0.86961 | 37115 ft | 440 kts | 201° |
| 2026-04-26 13:47 | 41.91639 | -0.89877 | 37134 ft | 440 kts | 201° |
| 2026-04-26 13:47 | 41.85942 | -0.92794 | 37122 ft | 438 kts | 202° |
| 2026-04-26 13:48 | 41.80265 | -0.95696 | 37122 ft | 440 kts | 201° |
| 2026-04-26 13:48 | 41.74528 | -0.98622 | 37128 ft | 439 kts | 201° |
| 2026-04-26 13:49 | 41.68850 | -1.01535 | 37133 ft | 438 kts | 203° |
| 2026-04-26 13:49 | 41.63396 | -1.05181 | 37117 ft | 437 kts | 212° |
| 2026-04-26 13:50 | 41.58353 | -1.09613 | 37129 ft | 438 kts | 216° |
| 2026-04-26 13:50 | 41.53364 | -1.14288 | 37131 ft | 436 kts | 216° |
| 2026-04-26 13:51 | 41.48408 | -1.18925 | 37129 ft | 435 kts | 216° |
| 2026-04-26 13:51 | 41.43459 | -1.23506 | 37137 ft | 436 kts | 216° |
| 2026-04-26 13:52 | 41.38475 | -1.28079 | 37149 ft | 437 kts | 216° |
| 2026-04-26 13:52 | 41.33472 | -1.32646 | 37154 ft | 436 kts | 216° |
| 2026-04-26 13:53 | 41.28462 | -1.37205 | 37167 ft | 436 kts | 216° |
| 2026-04-26 13:53 | 41.23474 | -1.41733 | 37172 ft | 434 kts | 215° |
| 2026-04-26 13:54 | 41.18507 | -1.46238 | 37181 ft | 434 kts | 216° |
| 2026-04-26 13:54 | 41.13541 | -1.50733 | 37176 ft | 433 kts | 215° |
| 2026-04-26 13:55 | 41.06913 | -1.56722 | 37182 ft | 435 kts | 215° |
| 2026-04-26 13:56 | 40.98617 | -1.64192 | 37198 ft | 434 kts | 215° |
| 2026-04-26 13:56 | 40.93618 | -1.68680 | 37193 ft | 434 kts | 215° |
| 2026-04-26 13:57 | 40.88623 | -1.73156 | 37210 ft | 435 kts | 214° |
| 2026-04-26 13:57 | 40.83621 | -1.77638 | 37203 ft | 434 kts | 214° |
| 2026-04-26 13:58 | 40.78661 | -1.82071 | 37200 ft | 433 kts | 214° |
| 2026-04-26 13:58 | 40.73674 | -1.86517 | 37203 ft | 434 kts | 214° |
| 2026-04-26 13:59 | 40.68676 | -1.90959 | 37213 ft | 434 kts | 214° |
| 2026-04-26 13:59 | 40.63658 | -1.95411 | 37213 ft | 436 kts | 214° |
| 2026-04-26 14:00 | 40.53599 | -2.04311 | 37207 ft | 437 kts | 214° |
| 2026-04-26 14:01 | 40.48539 | -2.08787 | 37205 ft | 439 kts | 215° |
| 2026-04-26 14:01 | 40.43483 | -2.13250 | 37197 ft | 439 kts | 214° |
| 2026-04-26 14:02 | 40.38435 | -2.17692 | 37190 ft | 434 kts | 214° |
| 2026-04-26 14:02 | 40.33394 | -2.22115 | 37198 ft | 442 kts | 214° |
| 2026-04-26 14:03 | 40.28321 | -2.26558 | 37186 ft | 438 kts | 215° |
| 2026-04-26 14:03 | 40.23235 | -2.31006 | 37191 ft | 439 kts | 214° |
| 2026-04-26 14:04 | 40.18170 | -2.35420 | 37178 ft | 439 kts | 214° |
| 2026-04-26 14:04 | 40.13104 | -2.39829 | 37173 ft | 439 kts | 214° |
| 2026-04-26 14:05 | 40.08023 | -2.44247 | 37166 ft | 439 kts | 214° |
| 2026-04-26 14:05 | 40.02953 | -2.48648 | 37175 ft | 440 kts | 214° |
| 2026-04-26 14:06 | 39.97878 | -2.53046 | 37159 ft | 439 kts | 214° |
| 2026-04-26 14:06 | 39.92776 | -2.57460 | 37166 ft | 439 kts | 214° |
| 2026-04-26 14:07 | 39.87684 | -2.61858 | 37156 ft | 438 kts | 214° |
| 2026-04-26 14:07 | 39.82616 | -2.66228 | 37156 ft | 439 kts | 213° |
| 2026-04-26 14:08 | 39.77518 | -2.70614 | 37147 ft | 438 kts | 214° |
| 2026-04-26 14:08 | 39.72459 | -2.74960 | 37149 ft | 440 kts | 214° |
| 2026-04-26 14:09 | 39.67370 | -2.79324 | 37145 ft | 438 kts | 214° |
| 2026-04-26 14:09 | 39.62292 | -2.83673 | 37143 ft | 438 kts | 214° |
| 2026-04-26 14:10 | 39.57207 | -2.88019 | 37134 ft | 439 kts | 214° |
| 2026-04-26 14:10 | 39.52104 | -2.92374 | 37123 ft | 439 kts | 214° |
| 2026-04-26 14:11 | 39.44489 | -2.98858 | 37134 ft | 438 kts | 214° |
| 2026-04-26 14:11 | 39.39271 | -3.02975 | 37128 ft | 439 kts | 207° |
| 2026-04-26 14:12 | 39.33699 | -3.06089 | 37126 ft | 441 kts | 201° |
| 2026-04-26 14:12 | 39.27925 | -3.08826 | 37126 ft | 442 kts | 200° |
| 2026-04-26 14:13 | 39.19292 | -3.12863 | 37118 ft | 441 kts | 201° |
| 2026-04-26 14:14 | 39.13527 | -3.15609 | 37110 ft | 442 kts | 201° |
| 2026-04-26 14:14 | 39.07777 | -3.18371 | 37113 ft | 440 kts | 201° |
| 2026-04-26 14:15 | 39.02055 | -3.21128 | 37118 ft | 441 kts | 201° |
| 2026-04-26 14:15 | 38.96320 | -3.23890 | 37108 ft | 441 kts | 201° |
| 2026-04-26 14:16 | 38.90572 | -3.26655 | 37103 ft | 442 kts | 201° |
| 2026-04-26 14:16 | 38.84798 | -3.29429 | 37121 ft | 443 kts | 201° |
| 2026-04-26 14:17 | 38.79089 | -3.32164 | 37119 ft | 441 kts | 201° |
| 2026-04-26 14:17 | 38.73299 | -3.34935 | 37093 ft | 442 kts | 201° |
| 2026-04-26 14:18 | 38.67565 | -3.37675 | 37096 ft | 441 kts | 201° |
| 2026-04-26 14:18 | 38.61823 | -3.40414 | 37120 ft | 441 kts | 201° |
| 2026-04-26 14:19 | 38.56097 | -3.43140 | 37095 ft | 440 kts | 201° |
| 2026-04-26 14:19 | 38.50380 | -3.45858 | 37078 ft | 441 kts | 201° |
| 2026-04-26 14:20 | 38.44619 | -3.48591 | 37097 ft | 443 kts | 201° |
| 2026-04-26 14:20 | 38.38846 | -3.51325 | 37079 ft | 440 kts | 202° |
| 2026-04-26 14:21 | 38.33085 | -3.54050 | 37061 ft | 441 kts | 201° |
| 2026-04-26 14:21 | 38.27344 | -3.56760 | 37062 ft | 443 kts | 202° |
| 2026-04-26 14:22 | 38.21581 | -3.59477 | 37054 ft | 441 kts | 202° |
| 2026-04-26 14:22 | 38.15845 | -3.62175 | 37066 ft | 441 kts | 202° |
| 2026-04-26 14:23 | 38.10155 | -3.65110 | 37059 ft | 441 kts | 205° |
| 2026-04-26 14:23 | 38.04563 | -3.68328 | 37047 ft | 441 kts | 206° |
| 2026-04-26 14:24 | 37.99008 | -3.71554 | 37050 ft | 442 kts | 205° |
| 2026-04-26 14:24 | 37.93429 | -3.74757 | 37040 ft | 441 kts | 205° |
| 2026-04-26 14:25 | 37.87815 | -3.77947 | 37027 ft | 439 kts | 205° |
| 2026-04-26 14:25 | 37.82267 | -3.81079 | 37028 ft | 440 kts | 205° |
| 2026-04-26 14:26 | 37.76679 | -3.84221 | 37042 ft | 440 kts | 205° |
| 2026-04-26 14:26 | 37.71086 | -3.87359 | 37036 ft | 441 kts | 205° |
| 2026-04-26 14:27 | 37.65476 | -3.90500 | 37052 ft | 439 kts | 205° |
| 2026-04-26 14:27 | 37.59903 | -3.93615 | 37073 ft | 441 kts | 205° |
| 2026-04-26 14:28 | 37.54289 | -3.96747 | 37070 ft | 439 kts | 205° |
| 2026-04-26 14:28 | 37.48694 | -3.99863 | 37086 ft | 440 kts | 206° |
| 2026-04-26 14:29 | 37.43102 | -4.02973 | 37086 ft | 439 kts | 205° |
| 2026-04-26 14:29 | 37.37498 | -4.06085 | 37074 ft | 440 kts | 206° |
| 2026-04-26 14:30 | 37.31914 | -4.09180 | 37074 ft | 440 kts | 206° |
| 2026-04-26 14:30 | 37.26276 | -4.12299 | 37079 ft | 440 kts | 206° |
| 2026-04-26 14:31 | 37.20709 | -4.15374 | 37075 ft | 439 kts | 206° |
| 2026-04-26 14:31 | 37.15122 | -4.18455 | 37099 ft | 440 kts | 206° |
| 2026-04-26 14:32 | 37.09514 | -4.21544 | 37097 ft | 441 kts | 206° |
| 2026-04-26 14:32 | 37.03912 | -4.24624 | 37099 ft | 439 kts | 206° |
| 2026-04-26 14:33 | 36.98311 | -4.27698 | 37109 ft | 439 kts | 206° |
| 2026-04-26 14:33 | 36.92724 | -4.30759 | 37098 ft | 439 kts | 206° |
| 2026-04-26 14:34 | 36.87119 | -4.33826 | 37090 ft | 440 kts | 206° |
| 2026-04-26 14:34 | 36.81560 | -4.36955 | 37085 ft | 439 kts | 210° |
| 2026-04-26 14:35 | 36.76281 | -4.40755 | 37102 ft | 438 kts | 215° |
| 2026-04-26 14:35 | 36.71198 | -4.44852 | 37111 ft | 436 kts | 216° |
| 2026-04-26 14:36 | 36.66095 | -4.49007 | 37096 ft | 437 kts | 216° |
| 2026-04-26 14:36 | 36.61013 | -4.53100 | 37100 ft | 437 kts | 216° |
| 2026-04-26 14:37 | 36.55920 | -4.57164 | 37108 ft | 436 kts | 216° |
| 2026-04-26 14:37 | 36.50796 | -4.61226 | 37084 ft | 437 kts | 216° |
| 2026-04-26 14:38 | 36.45683 | -4.65264 | 37060 ft | 437 kts | 215° |
| 2026-04-26 14:38 | 36.40535 | -4.69322 | 37027 ft | 437 kts | 215° |
| 2026-04-26 14:39 | 36.35405 | -4.73357 | 37021 ft | 438 kts | 215° |
| 2026-04-26 14:39 | 36.30271 | -4.77389 | 37023 ft | 437 kts | 215° |
| 2026-04-26 14:40 | 36.25156 | -4.81399 | 37031 ft | 435 kts | 215° |
| 2026-04-26 14:40 | 36.20053 | -4.85394 | 37030 ft | 436 kts | 215° |
| 2026-04-26 14:41 | 36.14905 | -4.89417 | 37026 ft | 436 kts | 215° |
| 2026-04-26 14:41 | 36.09806 | -4.93431 | 37031 ft | 436 kts | 216° |
| 2026-04-26 14:42 | 36.04725 | -4.97457 | 37015 ft | 435 kts | 216° |
| 2026-04-26 14:42 | 35.99627 | -5.01491 | 37043 ft | 435 kts | 216° |
| 2026-04-26 14:43 | 35.94535 | -5.05512 | 37058 ft | 433 kts | 215° |
| 2026-04-26 14:43 | 35.89451 | -5.09518 | 37061 ft | 434 kts | 215° |
| 2026-04-26 14:44 | 35.84381 | -5.13505 | 37060 ft | 433 kts | 216° |
| 2026-04-26 14:44 | 35.79287 | -5.17426 | 37055 ft | 433 kts | 214° |
| 2026-04-26 14:45 | 35.74127 | -5.21256 | 37068 ft | 434 kts | 214° |
| 2026-04-26 14:45 | 35.68980 | -5.25049 | 37054 ft | 429 kts | 214° |
| 2026-04-26 14:46 | 35.63811 | -5.28865 | 37051 ft | 432 kts | 214° |
| 2026-04-26 14:46 | 35.58691 | -5.32674 | 37048 ft | 428 kts | 216° |
| 2026-04-26 14:47 | 35.53820 | -5.36830 | 37047 ft | 428 kts | 219° |
| 2026-04-26 14:47 | 35.49048 | -5.41175 | 37045 ft | 428 kts | 219° |
| 2026-04-26 14:48 | 35.44273 | -5.45510 | 37052 ft | 426 kts | 219° |
| 2026-04-26 14:48 | 35.39519 | -5.49775 | 37015 ft | 426 kts | 219° |
| 2026-04-26 14:49 | 35.34726 | -5.54037 | 37019 ft | 425 kts | 219° |
| 2026-04-26 14:49 | 35.29955 | -5.58258 | 37004 ft | 425 kts | 219° |
| 2026-04-26 14:50 | 35.25172 | -5.62476 | 36982 ft | 425 kts | 218° |
| 2026-04-26 14:50 | 35.20382 | -5.66693 | 36964 ft | 425 kts | 218° |
| 2026-04-26 14:51 | 35.15602 | -5.70893 | 36937 ft | 422 kts | 218° |
| 2026-04-26 14:51 | 35.10836 | -5.75077 | 36916 ft | 423 kts | 218° |
| 2026-04-26 14:52 | 35.06048 | -5.79272 | 36914 ft | 422 kts | 218° |
| 2026-04-26 14:52 | 35.01287 | -5.83439 | 36897 ft | 423 kts | 217° |
| 2026-04-26 14:53 | 34.96501 | -5.87619 | 36909 ft | 422 kts | 218° |
| 2026-04-26 14:53 | 34.91741 | -5.91772 | 36905 ft | 422 kts | 218° |
| 2026-04-26 14:54 | 34.87041 | -5.96045 | 36898 ft | 422 kts | 220° |
| 2026-04-26 14:54 | 34.82526 | -6.00555 | 36885 ft | 421 kts | 221° |
| 2026-04-26 14:55 | 34.78022 | -6.05113 | 36886 ft | 421 kts | 221° |
| 2026-04-26 14:55 | 34.73504 | -6.09646 | 36885 ft | 421 kts | 221° |
| 2026-04-26 14:56 | 34.68984 | -6.14143 | 36882 ft | 420 kts | 220° |
| 2026-04-26 14:56 | 34.64436 | -6.18645 | 36894 ft | 421 kts | 220° |
| 2026-04-26 14:57 | 34.59888 | -6.23131 | 36877 ft | 420 kts | 220° |
| 2026-04-26 14:57 | 34.55354 | -6.27595 | 36495 ft | 423 kts | 220° |
| 2026-04-26 14:57 | 34.53077 | -6.29834 | 36053 ft | 422 kts | 220° |
| 2026-04-26 14:58 | 34.50789 | -6.32061 | 35705 ft | 420 kts | 219° |
| 2026-04-26 14:58 | 34.48434 | -6.34140 | 35329 ft | 422 kts | 215° |
| 2026-04-26 14:58 | 34.45941 | -6.36064 | 34941 ft | 425 kts | 212° |
| 2026-04-26 14:58 | 34.43422 | -6.37869 | 34579 ft | 424 kts | 211° |
| 2026-04-26 14:59 | 34.40878 | -6.39636 | 34298 ft | 417 kts | 211° |
| 2026-04-26 14:59 | 34.38364 | -6.41369 | 34108 ft | 425 kts | 210° |
| 2026-04-26 14:59 | 34.35741 | -6.43181 | 33663 ft | 432 kts | 210° |
| 2026-04-26 14:59 | 34.34882 | -6.43776 | 33510 ft | 432 kts | 210° |
| 2026-04-26 15:00 | 34.30568 | -6.46785 | 32744 ft | 432 kts | 211° |
| 2026-04-26 15:00 | 34.27956 | -6.48617 | 32282 ft | 432 kts | 211° |
| 2026-04-26 15:00 | 34.25365 | -6.50442 | 31833 ft | 434 kts | 211° |
| 2026-04-26 15:00 | 34.22751 | -6.52285 | 31374 ft | 437 kts | 211° |
| 2026-04-26 15:01 | 34.20148 | -6.54122 | 30922 ft | 437 kts | 211° |
| 2026-04-26 15:01 | 34.17522 | -6.55973 | 30471 ft | 438 kts | 211° |
| 2026-04-26 15:01 | 34.14884 | -6.57834 | 29954 ft | 440 kts | 211° |
| 2026-04-26 15:01 | 34.12230 | -6.59704 | 29376 ft | 438 kts | 211° |
| 2026-04-26 15:02 | 34.09613 | -6.61546 | 28784 ft | 435 kts | 211° |
| 2026-04-26 15:02 | 34.07023 | -6.63370 | 28258 ft | 431 kts | 211° |
| 2026-04-26 15:02 | 34.04444 | -6.65184 | 27732 ft | 426 kts | 210° |
| 2026-04-26 15:02 | 34.01906 | -6.66968 | 27172 ft | 423 kts | 210° |
| 2026-04-26 15:03 | 33.99360 | -6.68757 | 26595 ft | 420 kts | 210° |
| 2026-04-26 15:03 | 33.96850 | -6.70520 | 26020 ft | 417 kts | 210° |
| 2026-04-26 15:03 | 33.94363 | -6.72265 | 25449 ft | 415 kts | 210° |
| 2026-04-26 15:03 | 33.91875 | -6.74010 | 24845 ft | 412 kts | 210° |
| 2026-04-26 15:04 | 33.89425 | -6.75728 | 24222 ft | 411 kts | 211° |
| 2026-04-26 15:04 | 33.86938 | -6.77470 | 23654 ft | 408 kts | 211° |
| 2026-04-26 15:04 | 33.84520 | -6.79163 | 23109 ft | 404 kts | 211° |
| 2026-04-26 15:04 | 33.82097 | -6.80858 | 22566 ft | 401 kts | 210° |
| 2026-04-26 15:05 | 33.79689 | -6.82541 | 22023 ft | 397 kts | 210° |
| 2026-04-26 15:05 | 33.78903 | -6.83090 | 21840 ft | 396 kts | 210° |
| 2026-04-26 15:05 | 33.74954 | -6.85849 | 20848 ft | 393 kts | 210° |
| 2026-04-26 15:05 | 33.72592 | -6.87496 | 20288 ft | 392 kts | 210° |
| 2026-04-26 15:06 | 33.70264 | -6.89119 | 19922 ft | 383 kts | 210° |
| 2026-04-26 15:06 | 33.68015 | -6.90687 | 19817 ft | 369 kts | 210° |
| 2026-04-26 15:06 | 33.65797 | -6.92232 | 19453 ft | 363 kts | 210° |
| 2026-04-26 15:06 | 33.63662 | -6.93718 | 18929 ft | 357 kts | 210° |
| 2026-04-26 15:07 | 33.59408 | -6.96678 | 17664 ft | 354 kts | 210° |
| 2026-04-26 15:07 | 33.57291 | -6.98150 | 17255 ft | 349 kts | 210° |
| 2026-04-26 15:07 | 33.55176 | -6.99620 | 16806 ft | 346 kts | 210° |
| 2026-04-26 15:08 | 33.53120 | -7.01048 | 16431 ft | 342 kts | 210° |
| 2026-04-26 15:08 | 33.51054 | -7.02482 | 15918 ft | 342 kts | 210° |
| 2026-04-26 15:08 | 33.49018 | -7.03894 | 15519 ft | 337 kts | 209° |
| 2026-04-26 15:08 | 33.47014 | -7.05282 | 14854 ft | 331 kts | 209° |
| 2026-04-26 15:09 | 33.45068 | -7.06630 | 14409 ft | 320 kts | 209° |
| 2026-04-26 15:09 | 33.43141 | -7.07963 | 13856 ft | 316 kts | 209° |
| 2026-04-26 15:09 | 33.41283 | -7.09249 | 13586 ft | 309 kts | 209° |
| 2026-04-26 15:09 | 33.39433 | -7.10528 | 13220 ft | 305 kts | 209° |
| 2026-04-26 15:10 | 33.37609 | -7.11789 | 12930 ft | 300 kts | 209° |
| 2026-04-26 15:10 | 33.36401 | -7.12622 | 12684 ft | 299 kts | 210° |
| 2026-04-26 15:10 | 33.34031 | -7.14258 | 12114 ft | 295 kts | 210° |
| 2026-04-26 15:10 | 33.32261 | -7.15479 | 11549 ft | 290 kts | 210° |
| 2026-04-26 15:11 | 33.30533 | -7.16671 | 11201 ft | 280 kts | 210° |
| 2026-04-26 15:11 | 33.28863 | -7.17821 | 10721 ft | 276 kts | 210° |
| 2026-04-26 15:11 | 33.27233 | -7.18945 | 10317 ft | 270 kts | 211° |
| 2026-04-26 15:11 | 33.25610 | -7.20063 | 9818 ft | 267 kts | 211° |
| 2026-04-26 15:12 | 33.24032 | -7.21151 | 9459 ft | 259 kts | 211° |
| 2026-04-26 15:12 | 33.22507 | -7.22203 | 9139 ft | 250 kts | 211° |
| 2026-04-26 15:12 | 33.20992 | -7.23246 | 8616 ft | 250 kts | 211° |
| 2026-04-26 15:12 | 33.19491 | -7.24277 | 8115 ft | 252 kts | 211° |
| 2026-04-26 15:13 | 33.17987 | -7.25310 | 7740 ft | 247 kts | 211° |
| 2026-04-26 15:13 | 33.16526 | -7.26354 | 7353 ft | 244 kts | 216° |
| 2026-04-26 15:13 | 33.15345 | -7.27719 | 7218 ft | 228 kts | 239° |
| 2026-04-26 15:13 | 33.14803 | -7.29464 | 6829 ft | 227 kts | 261° |
| 2026-04-26 15:14 | 33.14565 | -7.31319 | 6523 ft | 227 kts | 261° |
| 2026-04-26 15:14 | 33.14313 | -7.33159 | 6269 ft | 225 kts | 259° |
| 2026-04-26 15:14 | 33.14039 | -7.34959 | 6159 ft | 215 kts | 259° |
| 2026-04-26 15:14 | 33.13769 | -7.36667 | 6060 ft | 205 kts | 259° |
| 2026-04-26 15:15 | 33.13506 | -7.38328 | 5822 ft | 202 kts | 259° |
| 2026-04-26 15:15 | 33.13248 | -7.39958 | 5486 ft | 203 kts | 261° |
| 2026-04-26 15:15 | 33.12986 | -7.41618 | 5202 ft | 202 kts | 261° |
| 2026-04-26 15:15 | 33.12725 | -7.43274 | 4909 ft | 202 kts | 261° |
| 2026-04-26 15:16 | 33.12467 | -7.44919 | 4625 ft | 202 kts | 261° |
| 2026-04-26 15:16 | 33.12210 | -7.46556 | 4354 ft | 200 kts | 261° |
| 2026-04-26 15:16 | 33.12029 | -7.48188 | 4058 ft | 199 kts | 273° |
| 2026-04-26 15:16 | 33.12365 | -7.49727 | 3973 ft | 191 kts | 306° |
| 2026-04-26 15:17 | 33.13318 | -7.50823 | 3994 ft | 192 kts | 330° |
| 2026-04-26 15:17 | 33.14103 | -7.51323 | 3992 ft | 191 kts | 338° |
| 2026-04-26 15:17 | 33.15766 | -7.52053 | 3990 ft | 190 kts | 345° |
| 2026-04-26 15:17 | 33.17017 | -7.52495 | 3984 ft | 185 kts | 346° |
| 2026-04-26 15:18 | 33.18249 | -7.52915 | 3973 ft | 185 kts | 346° |
| 2026-04-26 15:18 | 33.19472 | -7.53330 | 3837 ft | 185 kts | 346° |
| 2026-04-26 15:18 | 33.20718 | -7.53753 | 3493 ft | 182 kts | 347° |
| 2026-04-26 15:18 | 33.21925 | -7.54164 | 3275 ft | 179 kts | 346° |
| 2026-04-26 15:19 | 33.23090 | -7.54561 | 3023 ft | 169 kts | 346° |
| 2026-04-26 15:19 | 33.24162 | -7.54927 | 2855 ft | 158 kts | 346° |
| 2026-04-26 15:19 | 33.25216 | -7.55283 | 2596 ft | 151 kts | 346° |
| 2026-04-26 15:19 | 33.26223 | -7.55625 | 2435 ft | 151 kts | 347° |
| 2026-04-26 15:20 | 33.27235 | -7.55969 | 2215 ft | 150 kts | 346° |
| 2026-04-26 15:20 | 33.28249 | -7.56317 | 2035 ft | 151 kts | 348° |
| 2026-04-26 15:20 | 33.29279 | -7.56670 | 1819 ft | 153 kts | 347° |
| 2026-04-26 15:20 | 33.30282 | -7.57001 | 1622 ft | 145 kts | 345° |
| 2026-04-26 15:21 | 33.31256 | -7.57342 | 1440 ft | 148 kts | 346° |
| 2026-04-26 15:21 | 33.32270 | -7.57691 | 1266 ft | 153 kts | 345° |
| 2026-04-26 15:21 | 33.33277 | -7.58026 | 1033 ft | 147 kts | 346° |
| 2026-04-26 15:21 | 33.34285 | -7.58377 | 866 ft | 156 kts | 344° |
| 2026-04-26 15:22 | 33.35344 | -7.58742 | 673 ft | 155 kts | 346° |
| 2026-04-26 15:22 | 33.36255 | -7.59041 | 650 ft | 105 kts | 344° |
| 2026-04-26 15:22 | 33.36775 | -7.59218 | 648 ft | 55 kts | 345° |
| 2026-04-26 15:22 | 33.37077 | -7.59322 | 648 ft | 41 kts | 353° |
| 2026-04-26 15:23 | 33.37330 | -7.59286 | 648 ft | 34 kts | 15° |
| 2026-04-26 15:23 | 33.37499 | -7.59238 | 648 ft | 20 kts | 13° |
| 2026-04-26 15:23 | 33.37615 | -7.59203 | 648 ft | 8 kts | 13° |
| 2026-04-26 15:23 | 33.37669 | -7.59189 | 648 ft | 8 kts | 13° |
| 2026-04-26 15:24 | 33.37751 | -7.59164 | 646 ft | 16 kts | 16° |
| 2026-04-26 15:24 | 33.37826 | -7.59057 | 645 ft | 19 kts | 76° |
| 2026-04-26 15:24 | 33.37870 | -7.58880 | 644 ft | 25 kts | 74° |
| 2026-04-26 15:24 | 33.37915 | -7.58682 | 645 ft | 18 kts | 90° |
| 2026-04-26 15:25 | 33.37862 | -7.58566 | 645 ft | 16 kts | 130° |
| 2026-04-26 15:25 | 33.37797 | -7.58497 | 645 ft | 18 kts | 150° |
| 2026-04-26 15:25 | 33.37682 | -7.58451 | 646 ft | 9 kts | 164° |
| 2026-04-26 15:25 | 33.37628 | -7.58438 | 646 ft | 6 kts | 165° |
| 2026-04-26 15:26 | 33.37606 | -7.58404 | 647 ft | 4 kts | 101° |
| 2026-04-26 15:26 | 33.37603 | -7.58379 | 647 ft | 1 kts | 97° |
| 2026-04-26 15:26 | 33.37602 | -7.58367 | 647 ft | 2 kts | 97° |
| 2026-04-26 15:26 | 33.37600 | -7.58350 | 648 ft | 0 kts | 99° |
| 2026-04-26 15:27 | 33.37599 | -7.58343 | 648 ft | 2 kts | 98° |
| 2026-04-26 15:27 | 33.37599 | -7.58339 | 648 ft | 0 kts | 98° |